createdAt,value
2018-06-14T00:01:53.492Z,11.90
2018-06-14T00:04:24.145Z,11.80
2018-06-14T00:06:54.828Z,11.90
2018-06-14T00:09:25.479Z,11.80
2018-06-14T00:11:56.172Z,11.80
2018-06-14T00:14:26.848Z,11.80
2018-06-14T00:16:57.544Z,11.70
2018-06-14T00:19:28.240Z,11.70
2018-06-14T00:22:05.507Z,11.60
2018-06-14T00:24:35.032Z,11.60
2018-06-14T00:27:05.704Z,11.60
2018-06-14T00:29:36.387Z,11.50
2018-06-14T00:32:07.316Z,11.50
2018-06-14T00:34:38.011Z,11.50
2018-06-14T00:37:08.675Z,11.40
2018-06-14T00:39:39.367Z,11.40
2018-06-14T00:42:10.028Z,11.40
2018-06-14T00:44:40.707Z,11.30
2018-06-14T00:47:11.359Z,11.30
2018-06-14T00:49:42.044Z,11.30
2018-06-14T00:52:12.703Z,11.30
2018-06-14T00:54:43.381Z,11.30
2018-06-14T00:57:22.899Z,11.20
2018-06-14T00:59:54.064Z,11.20
2018-06-14T01:02:24.856Z,11.20
2018-06-14T01:04:55.739Z,11.20
2018-06-14T01:07:26.385Z,11.20
2018-06-14T01:09:57.089Z,11.10
2018-06-14T01:12:27.727Z,11.10
2018-06-14T01:14:58.415Z,11.10
2018-06-14T01:17:29.103Z,11.00
2018-06-14T01:19:59.803Z,11.00
2018-06-14T01:22:30.657Z,11.00
2018-06-14T01:25:01.515Z,11.00
2018-06-14T01:27:32.163Z,10.90
2018-06-14T01:30:02.952Z,10.90
2018-06-14T01:32:33.603Z,10.80
2018-06-14T01:35:04.521Z,10.80
2018-06-14T01:37:46.580Z,10.80
2018-06-14T01:40:17.289Z,10.80
2018-06-14T01:42:48.151Z,10.80
2018-06-14T01:45:18.839Z,10.70
2018-06-14T01:47:49.903Z,10.70
2018-06-14T01:50:20.604Z,10.70
2018-06-14T01:52:51.252Z,10.70
2018-06-14T01:55:21.964Z,10.60
2018-06-14T01:57:52.597Z,10.60
2018-06-14T02:00:23.277Z,10.60
2018-06-14T02:02:54.270Z,10.60
2018-06-14T02:05:24.967Z,10.60
2018-06-14T02:07:55.635Z,10.60
2018-06-14T02:10:26.567Z,10.60
2018-06-14T02:12:57.219Z,10.60
2018-06-14T02:15:28.855Z,10.60
2018-06-14T02:18:00.109Z,10.50
2018-06-14T02:20:30.940Z,10.50
2018-06-14T02:23:01.824Z,10.50
2018-06-14T02:25:32.490Z,10.50
2018-06-14T02:28:03.167Z,10.50
2018-06-14T02:30:33.827Z,10.50
2018-06-14T02:33:04.947Z,10.50
2018-06-14T02:35:35.595Z,10.50
2018-06-14T02:38:06.316Z,10.50
2018-06-14T02:40:36.979Z,10.50
2018-06-14T02:43:07.671Z,10.50
2018-06-14T02:45:38.323Z,10.50
2018-06-14T02:48:09.008Z,10.50
2018-06-14T02:50:39.663Z,10.40
2018-06-14T02:53:11.034Z,10.40
2018-06-14T02:55:41.716Z,10.40
2018-06-14T02:58:12.407Z,10.40
2018-06-14T03:00:43.475Z,10.40
2018-06-14T03:03:15.248Z,10.40
2018-06-14T03:05:45.955Z,10.40
2018-06-14T03:08:16.639Z,10.40
2018-06-14T03:10:47.327Z,10.40
2018-06-14T03:13:18.339Z,10.40
2018-06-14T03:15:49.383Z,10.40
2018-06-14T03:18:20.037Z,10.40
2018-06-14T03:20:50.732Z,10.40
2018-06-14T03:23:21.467Z,10.30
2018-06-14T03:25:52.198Z,10.30
2018-06-14T03:28:22.867Z,10.30
2018-06-14T03:30:53.599Z,10.30
2018-06-14T03:33:24.271Z,10.30
2018-06-14T03:35:54.955Z,10.30
2018-06-14T03:38:26.134Z,10.30
2018-06-14T03:40:57.260Z,10.30
2018-06-14T03:43:27.947Z,10.30
2018-06-14T03:45:58.624Z,10.30
2018-06-14T03:48:29.331Z,10.30
2018-06-14T03:50:59.980Z,10.40
2018-06-14T03:53:30.653Z,10.30
2018-06-14T03:56:01.303Z,10.30
2018-06-14T03:58:31.988Z,10.30
2018-06-14T04:01:02.747Z,10.40
2018-06-14T04:03:33.431Z,10.40
2018-06-14T04:06:04.092Z,10.30
2018-06-14T04:08:34.819Z,10.40
2018-06-14T04:11:05.504Z,10.40
2018-06-14T04:13:36.155Z,10.40
2018-06-14T04:16:06.840Z,10.40
2018-06-14T04:18:37.606Z,10.50
2018-06-14T04:21:08.395Z,10.50
2018-06-14T04:23:39.123Z,10.50
2018-06-14T04:26:09.771Z,10.60
2018-06-14T04:28:40.463Z,10.60
2018-06-14T04:31:11.121Z,10.70
2018-06-14T04:33:41.796Z,10.70
2018-06-14T04:36:12.451Z,10.80
2018-06-14T04:38:43.199Z,10.90
2018-06-14T04:41:13.879Z,10.90
2018-06-14T04:43:44.885Z,11.00
2018-06-14T04:46:15.575Z,11.00
2018-06-14T04:48:46.219Z,11.10
2018-06-14T04:51:17.595Z,11.10
2018-06-14T04:53:48.248Z,11.20
2018-06-14T04:56:18.955Z,11.20
2018-06-14T04:58:49.627Z,11.30
2018-06-14T05:01:20.327Z,11.40
2018-06-14T05:03:51.083Z,11.40
2018-06-14T05:06:22.108Z,11.50
2018-06-14T05:08:52.799Z,11.60
2018-06-14T05:11:23.479Z,11.70
2018-06-14T05:13:54.136Z,11.70
2018-06-14T05:16:24.827Z,11.80
2018-06-14T05:18:55.487Z,11.80
2018-06-14T05:21:26.179Z,11.90
2018-06-14T05:23:56.851Z,12.00
2018-06-14T05:26:27.547Z,12.10
2018-06-14T05:28:58.446Z,12.20
2018-06-14T05:31:29.131Z,12.20
2018-06-14T05:33:59.824Z,12.30
2018-06-14T05:36:30.511Z,12.30
2018-06-14T05:39:01.214Z,12.30
2018-06-14T05:41:31.863Z,12.30
2018-06-14T05:44:02.546Z,12.30
2018-06-14T05:46:33.705Z,12.30
2018-06-14T05:49:04.755Z,12.40
2018-06-14T05:51:35.436Z,12.50
2018-06-14T05:54:06.108Z,12.50
2018-06-14T05:56:36.776Z,12.70
2018-06-14T05:59:07.820Z,12.80
2018-06-14T06:01:38.503Z,12.90
2018-06-14T06:04:09.192Z,13.00
2018-06-14T06:06:39.843Z,13.10
2018-06-14T06:09:11.775Z,13.20
2018-06-14T06:11:42.435Z,13.30
2018-06-14T06:14:13.135Z,13.40
2018-06-14T06:16:43.795Z,13.60
2018-06-14T06:19:14.490Z,13.70
2018-06-14T06:21:45.144Z,13.80
2018-06-14T06:24:15.856Z,13.90
2018-06-14T06:29:23.572Z,14.20
2018-06-14T06:31:54.224Z,14.30
2018-06-14T06:34:24.903Z,14.40
2018-06-14T06:36:55.592Z,14.50
2018-06-14T06:39:26.243Z,14.70
2018-06-14T06:41:57.143Z,14.80
2018-06-14T06:44:27.795Z,14.90
2018-06-14T06:46:58.495Z,15.00
2018-06-14T06:49:29.148Z,15.10
2018-06-14T06:51:59.864Z,15.20
2018-06-14T06:54:30.515Z,15.20
2018-06-14T06:57:01.256Z,15.30
2018-06-14T06:59:31.907Z,15.50
2018-06-14T07:02:02.590Z,15.60
2018-06-14T07:04:33.884Z,15.70
2018-06-14T07:07:04.867Z,15.80
2018-06-14T07:09:35.543Z,15.80
2018-06-14T07:12:06.231Z,15.90
2018-06-14T07:14:36.907Z,16.00
2018-06-14T07:17:07.591Z,16.10
2018-06-14T07:19:38.279Z,16.10
2018-06-14T07:22:08.937Z,16.20
2018-06-14T07:24:39.624Z,16.30
2018-06-14T07:27:10.279Z,16.40
2018-06-14T07:29:41.163Z,16.50
2018-06-14T07:32:11.831Z,16.60
2018-06-14T07:34:42.520Z,16.70
2018-06-14T07:37:13.203Z,16.80
2018-06-14T07:39:43.858Z,16.80
2018-06-14T07:42:14.544Z,16.90
2018-06-14T07:44:45.195Z,17.00
2018-06-14T07:47:15.897Z,17.00
2018-06-14T07:49:46.547Z,17.10
2018-06-14T07:52:17.255Z,17.10
2018-06-14T07:54:48.095Z,17.20
2018-06-14T07:57:18.820Z,17.20
2018-06-14T07:59:49.464Z,17.30
2018-06-14T08:02:20.175Z,17.30
2018-06-14T08:04:50.819Z,17.40
2018-06-14T08:07:21.516Z,17.50
2018-06-14T08:09:52.183Z,17.60
2018-06-14T08:12:22.921Z,17.70
2018-06-14T08:14:53.720Z,17.80
2018-06-14T08:17:24.403Z,17.90
2018-06-14T08:19:55.039Z,18.00
2018-06-14T08:22:25.731Z,18.00
2018-06-14T08:24:56.388Z,18.00
2018-06-14T08:27:27.075Z,17.90
2018-06-14T08:29:57.803Z,18.00
2018-06-14T08:32:28.503Z,18.00
2018-06-14T08:34:59.143Z,18.10
2018-06-14T08:37:30.628Z,18.20
2018-06-14T08:40:01.276Z,18.30
2018-06-14T08:42:33.415Z,18.20
2018-06-14T08:45:04.424Z,18.20
2018-06-14T08:47:35.103Z,18.20
2018-06-14T08:50:06.327Z,18.10
2018-06-14T08:52:37.011Z,18.00
2018-06-14T08:55:07.667Z,18.00
2018-06-14T08:57:38.399Z,18.00
2018-06-14T09:00:09.099Z,17.90
2018-06-14T09:02:39.799Z,17.90
2018-06-14T09:05:10.529Z,17.90
2018-06-14T09:07:41.399Z,18.00
2018-06-14T09:10:12.088Z,18.10
2018-06-14T09:12:42.775Z,18.20
2018-06-14T09:15:13.466Z,18.30
2018-06-14T09:17:44.115Z,18.50
2018-06-14T09:20:14.816Z,18.60
2018-06-14T09:22:45.483Z,18.70
2018-06-14T09:25:16.172Z,18.80
2018-06-14T09:27:46.821Z,18.90
2018-06-14T09:30:17.520Z,19.00
2018-06-14T09:32:48.175Z,19.10
2018-06-14T09:35:18.875Z,19.20
2018-06-14T09:37:49.527Z,19.20
2018-06-14T09:40:20.734Z,19.30
2018-06-14T09:42:51.425Z,19.30
2018-06-14T09:45:22.468Z,19.30
2018-06-14T09:47:53.153Z,19.30
2018-06-14T09:50:24.439Z,19.40
2018-06-14T09:52:55.284Z,19.40
2018-06-14T09:55:25.957Z,19.40
2018-06-14T09:57:56.888Z,19.40
2018-06-14T10:00:27.785Z,19.50
2018-06-14T10:02:58.619Z,19.50
2018-06-14T10:05:29.311Z,19.60
2018-06-14T10:08:00.388Z,19.50
2018-06-14T10:10:31.072Z,19.50
2018-06-14T10:13:01.752Z,19.40
2018-06-14T10:15:32.435Z,19.30
2018-06-14T10:18:03.094Z,19.20
2018-06-14T10:20:33.796Z,19.20
2018-06-14T10:23:04.489Z,19.30
2018-06-14T10:25:35.395Z,19.30
2018-06-14T10:28:06.099Z,19.20
2018-06-14T10:30:36.762Z,19.30
2018-06-14T10:33:07.452Z,19.40
2018-06-14T10:35:38.118Z,19.50
2018-06-14T10:38:08.831Z,19.60
2018-06-14T10:40:39.471Z,19.60
2018-06-14T10:43:10.153Z,19.60
2018-06-14T10:45:40.803Z,19.60
2018-06-14T10:48:11.524Z,19.60
2018-06-14T10:50:42.239Z,19.80
2018-06-14T10:53:12.879Z,19.90
2018-06-14T10:55:43.563Z,20.10
2018-06-14T10:58:14.261Z,20.20
2018-06-14T11:00:44.671Z,20.20
2018-06-14T11:03:15.329Z,20.20
2018-06-14T11:05:45.735Z,20.30
2018-06-14T11:08:16.390Z,20.40
2018-06-14T11:10:46.793Z,20.40
2018-06-14T11:13:17.514Z,20.50
2018-06-14T11:15:48.352Z,20.50
2018-06-14T11:18:18.744Z,20.50
2018-06-14T11:20:49.405Z,20.70
2018-06-14T11:23:19.819Z,20.70
2018-06-14T11:25:50.475Z,20.60
2018-06-14T11:28:21.199Z,20.60
2018-06-14T11:30:51.561Z,20.70
2018-06-14T11:33:21.967Z,20.80
2018-06-14T11:35:52.324Z,20.90
2018-06-14T11:38:22.712Z,21.10
2018-06-14T11:40:53.071Z,21.10
2018-06-14T11:43:23.491Z,21.10
2018-06-14T11:45:53.902Z,21.10
2018-06-14T11:48:24.329Z,21.20
2018-06-14T11:50:54.903Z,21.20
2018-06-14T11:53:25.299Z,21.30
2018-06-14T11:55:55.688Z,21.40
2018-06-14T11:58:26.119Z,21.50
2018-06-14T12:00:56.536Z,21.60
2018-06-14T12:03:26.941Z,21.80
2018-06-14T12:05:57.375Z,21.80
2018-06-14T12:08:27.903Z,22.00
2018-06-14T12:10:58.468Z,22.10
2018-06-14T12:13:28.862Z,22.30
2018-06-14T12:15:59.225Z,22.30
2018-06-14T12:18:29.615Z,22.30
2018-06-14T12:21:00.159Z,22.40
2018-06-14T12:23:30.556Z,22.40
2018-06-14T12:26:00.936Z,22.50
2018-06-14T12:28:31.328Z,22.60
2018-06-14T12:31:01.692Z,22.60
2018-06-14T12:33:32.104Z,22.60
2018-06-14T12:36:02.469Z,22.60
2018-06-14T12:38:33.068Z,22.60
2018-06-14T12:41:03.423Z,22.50
2018-06-14T12:43:33.832Z,22.40
2018-06-14T12:46:04.547Z,22.30
2018-06-14T12:48:34.939Z,22.30
2018-06-14T12:51:05.323Z,22.30
2018-06-14T12:53:35.731Z,22.20
2018-06-14T12:56:06.344Z,22.20
2018-06-14T12:58:36.780Z,22.10
2018-06-14T13:01:07.324Z,22.10
2018-06-14T13:03:37.715Z,22.00
2018-06-14T13:06:08.288Z,22.00
2018-06-14T13:08:38.719Z,21.90
2018-06-14T13:11:09.140Z,21.90
2018-06-14T13:13:39.763Z,21.90
2018-06-14T13:16:10.310Z,21.80
2018-06-14T13:18:40.703Z,21.80
2018-06-14T13:21:11.101Z,21.70
2018-06-14T13:23:41.483Z,21.70
2018-06-14T13:26:11.883Z,21.60
2018-06-14T13:28:42.296Z,21.60
2018-06-14T13:31:12.656Z,21.60
2018-06-14T13:33:43.055Z,21.70
2018-06-14T13:36:13.827Z,21.70
2018-06-14T13:38:44.208Z,21.70
2018-06-14T13:41:14.582Z,21.80
2018-06-14T13:43:44.971Z,21.90
2018-06-14T13:46:15.339Z,22.00
2018-06-14T13:48:45.810Z,22.10
2018-06-14T13:51:16.319Z,22.30
2018-06-14T13:53:46.706Z,22.40
2018-06-14T13:56:17.071Z,22.40
2018-06-14T13:58:47.484Z,22.50
2018-06-14T14:01:17.919Z,22.50
2018-06-14T14:03:48.444Z,22.50
2018-06-14T14:06:18.851Z,22.50
2018-06-14T14:08:49.244Z,22.50
2018-06-14T14:11:19.635Z,22.50
2018-06-14T14:13:50.011Z,22.50
2018-06-14T14:16:20.560Z,22.50
2018-06-14T14:18:50.915Z,22.50
2018-06-14T14:21:21.299Z,22.40
2018-06-14T14:23:51.773Z,22.40
2018-06-14T14:26:22.295Z,22.40
2018-06-14T14:28:52.679Z,22.30
2018-06-14T14:31:23.100Z,22.30
2018-06-14T14:33:53.689Z,22.30
2018-06-14T14:36:24.096Z,22.30
2018-06-14T14:38:54.483Z,22.20
2018-06-14T14:41:24.883Z,22.20
2018-06-14T14:43:55.272Z,22.20
2018-06-14T14:46:25.655Z,22.20
2018-06-14T14:48:56.047Z,22.20
2018-06-14T14:51:26.441Z,22.20
2018-06-14T14:53:56.832Z,22.30
2018-06-14T14:56:27.231Z,22.30
2018-06-14T14:58:57.615Z,22.20
2018-06-14T15:01:28.016Z,22.20
2018-06-14T15:03:58.411Z,22.10
2018-06-14T15:06:28.847Z,22.10
2018-06-14T15:08:59.707Z,22.00
2018-06-14T15:11:30.091Z,21.90
2018-06-14T15:14:00.467Z,21.90
2018-06-14T15:16:30.867Z,21.80
2018-06-14T15:19:01.241Z,21.80
2018-06-14T15:21:31.642Z,21.70
2018-06-14T15:24:02.011Z,21.70
2018-06-14T15:26:32.599Z,21.70
2018-06-14T15:29:02.958Z,21.70
2018-06-14T15:31:33.453Z,21.70
2018-06-14T15:34:04.020Z,21.60
2018-06-14T15:36:34.432Z,21.60
2018-06-14T15:39:06.880Z,21.60
2018-06-14T15:41:37.415Z,21.50
2018-06-14T15:44:07.799Z,21.50
2018-06-14T15:46:38.195Z,21.40
2018-06-14T15:49:08.579Z,21.40
2018-06-14T15:51:38.975Z,21.30
2018-06-14T15:54:10.654Z,21.20
2018-06-14T15:56:42.307Z,21.10
2018-06-14T15:59:15.028Z,21.00
2018-06-14T16:01:45.379Z,20.80
2018-06-14T16:04:15.787Z,20.80
2018-06-14T16:06:46.159Z,20.70
2018-06-14T16:09:16.571Z,20.60
2018-06-14T16:11:47.350Z,20.50
2018-06-14T16:14:17.915Z,20.40
2018-06-14T16:16:48.295Z,20.30
2018-06-14T16:19:18.681Z,20.20
2018-06-14T16:21:49.047Z,20.10
2018-06-14T16:24:19.732Z,19.90
2018-06-14T16:26:50.413Z,19.80
2018-06-14T16:29:21.271Z,19.70
2018-06-14T16:31:51.928Z,19.50
2018-06-14T16:34:22.616Z,19.40
2018-06-14T16:36:53.267Z,19.20
2018-06-14T16:39:23.939Z,19.10
2018-06-14T16:41:54.636Z,18.90
2018-06-14T16:44:25.373Z,18.80
2018-06-14T16:46:56.185Z,18.80
2018-06-14T16:49:26.855Z,18.60
2018-06-14T16:51:57.543Z,18.60
2018-06-14T16:54:28.203Z,18.50
2018-06-14T16:56:58.895Z,18.40
2018-06-14T16:59:29.551Z,18.30
2018-06-14T17:02:00.247Z,18.30
2018-06-14T17:04:30.927Z,18.20
2018-06-14T17:07:01.683Z,18.10
2018-06-14T17:09:32.342Z,18.10
2018-06-14T17:12:03.381Z,18.00
2018-06-14T17:14:34.328Z,17.90
2018-06-14T17:17:05.289Z,17.90
2018-06-14T17:19:36.431Z,17.90
2018-06-14T17:22:07.103Z,17.80
2018-06-14T17:24:37.787Z,17.80
2018-06-14T17:27:08.437Z,17.80
2018-06-14T17:29:39.131Z,17.70
2018-06-14T17:32:09.792Z,17.70
2018-06-14T17:34:40.489Z,17.70
2018-06-14T17:37:11.175Z,17.60
2018-06-14T17:39:41.863Z,17.60
2018-06-14T17:42:12.619Z,17.60
2018-06-14T17:44:43.319Z,17.60
2018-06-14T17:47:13.999Z,17.50
2018-06-14T17:49:44.679Z,17.50
2018-06-14T17:52:15.376Z,17.50
2018-06-14T17:54:46.033Z,17.40
2018-06-14T17:57:16.740Z,17.40
2018-06-14T17:59:47.425Z,17.40
2018-06-14T18:02:18.119Z,17.30
2018-06-14T18:04:48.775Z,17.30
2018-06-14T18:07:19.503Z,17.30
2018-06-14T18:09:50.171Z,17.30
2018-06-14T18:12:21.550Z,17.30
2018-06-14T18:14:52.344Z,17.20
2018-06-14T18:17:23.038Z,17.20
2018-06-14T18:19:53.680Z,17.20
2018-06-14T18:22:24.386Z,17.20
2018-06-14T18:24:55.032Z,17.20
2018-06-14T18:27:25.732Z,17.20
2018-06-14T18:29:56.421Z,17.20
2018-06-14T18:32:27.284Z,17.10
2018-06-14T18:34:57.971Z,17.10
2018-06-14T18:37:28.659Z,17.10
2018-06-14T18:39:59.344Z,17.10
2018-06-14T18:42:30.052Z,17.00
2018-06-14T18:45:01.048Z,17.00
2018-06-14T18:47:31.726Z,17.00
2018-06-14T18:50:02.399Z,17.00
2018-06-14T18:52:33.138Z,17.00
2018-06-14T18:55:03.892Z,17.00
2018-06-14T18:57:34.584Z,17.00
2018-06-14T19:00:05.332Z,17.00
2018-06-14T19:02:36.039Z,17.00
2018-06-14T19:05:06.776Z,17.00
2018-06-14T19:07:37.496Z,17.00
2018-06-14T19:10:08.163Z,16.90
2018-06-14T19:12:38.861Z,16.90
2018-06-14T19:15:09.564Z,16.90
2018-06-14T19:17:40.455Z,17.00
2018-06-14T19:20:11.333Z,17.00
2018-06-14T19:22:42.365Z,16.90
2018-06-14T19:25:13.263Z,16.90
2018-06-14T19:27:43.956Z,16.90
2018-06-14T19:30:14.996Z,16.90
2018-06-14T19:32:45.751Z,16.80
2018-06-14T19:35:16.451Z,16.80
2018-06-14T19:37:47.127Z,16.80
2018-06-14T19:40:17.848Z,16.80
2018-06-14T19:42:48.876Z,16.80
2018-06-14T19:45:19.704Z,16.80
2018-06-14T19:47:50.547Z,16.80
2018-06-14T19:50:21.223Z,16.80
2018-06-14T19:52:52.095Z,16.80
2018-06-14T19:55:24.463Z,16.80
2018-06-14T19:57:55.156Z,16.80
2018-06-14T20:00:25.895Z,16.80
2018-06-14T20:02:56.595Z,16.70
2018-06-14T20:05:27.885Z,16.70
2018-06-14T20:07:58.621Z,16.70
2018-06-14T20:10:29.267Z,16.70
2018-06-14T20:12:59.963Z,16.70
2018-06-14T20:15:31.043Z,16.70
2018-06-14T20:18:01.755Z,16.70
2018-06-14T20:20:32.444Z,16.70
2018-06-14T20:23:03.312Z,16.60
2018-06-14T20:25:33.981Z,16.60
2018-06-14T20:28:05.112Z,16.60
2018-06-14T20:30:35.814Z,16.60
2018-06-14T20:33:06.628Z,16.60
2018-06-14T20:35:37.311Z,16.60
2018-06-14T20:38:08.381Z,16.60
2018-06-14T20:40:39.041Z,16.60
2018-06-14T20:43:09.898Z,16.60
2018-06-14T20:45:40.551Z,16.50
2018-06-14T20:48:11.375Z,16.50
2018-06-14T20:50:42.040Z,16.50
2018-06-14T20:53:12.736Z,16.50
2018-06-14T20:55:43.399Z,16.50
2018-06-14T20:58:14.127Z,16.50
2018-06-14T21:00:44.803Z,16.50
2018-06-14T21:03:15.527Z,16.50
2018-06-14T21:05:46.180Z,16.40
2018-06-14T21:08:16.871Z,16.40
2018-06-14T21:10:47.555Z,16.40
2018-06-14T21:13:18.263Z,16.40
2018-06-14T21:15:48.960Z,16.40
2018-06-14T21:18:19.639Z,16.40
2018-06-14T21:20:50.347Z,16.40
2018-06-14T21:23:21.203Z,16.40
2018-06-14T21:25:51.894Z,16.30
2018-06-14T21:28:22.591Z,16.40
2018-06-14T21:30:53.295Z,16.30
2018-06-14T21:33:23.963Z,16.30
2018-06-14T21:35:54.679Z,16.30
2018-06-14T21:38:25.327Z,16.30
2018-06-14T21:40:56.040Z,16.30
2018-06-14T21:43:26.717Z,16.30
2018-06-14T21:45:57.415Z,16.30
2018-06-14T21:48:28.099Z,16.20
2018-06-14T21:50:58.764Z,16.20
2018-06-14T21:53:29.593Z,16.20
2018-06-14T21:56:00.252Z,16.20
2018-06-14T21:58:30.967Z,16.20
2018-06-14T22:01:01.628Z,16.20
2018-06-14T22:03:37.813Z,16.20
2018-06-14T22:06:08.680Z,16.20
2018-06-14T22:08:39.348Z,16.20
2018-06-14T22:11:10.048Z,16.10
2018-06-14T22:13:40.707Z,16.10
2018-06-14T22:16:11.479Z,16.10
2018-06-14T22:18:42.143Z,16.10
2018-06-14T22:21:12.829Z,16.10
2018-06-14T22:23:43.487Z,16.10
2018-06-14T22:26:14.283Z,16.10
2018-06-14T22:28:44.959Z,16.10
2018-06-14T22:31:15.647Z,16.10
2018-06-14T22:33:57.727Z,16.10
2018-06-14T22:36:28.415Z,16.10
2018-06-14T22:38:59.119Z,16.10
2018-06-14T22:41:29.824Z,16.00
2018-06-14T22:44:00.569Z,16.00
2018-06-14T22:46:31.405Z,16.00
2018-06-14T22:49:02.100Z,16.00
2018-06-14T22:51:43.795Z,16.10
2018-06-14T22:54:14.535Z,16.00
2018-06-14T22:56:45.283Z,16.00
2018-06-14T22:59:15.963Z,16.00
2018-06-14T23:01:49.639Z,16.00
2018-06-14T23:04:22.656Z,16.00
2018-06-14T23:06:53.465Z,16.00
2018-06-14T23:10:37.096Z,16.00
2018-06-14T23:13:09.023Z,16.00
2018-06-14T23:15:39.928Z,16.00
2018-06-14T23:18:10.591Z,16.00
2018-06-14T23:20:41.360Z,16.00
2018-06-14T23:23:12.048Z,15.90
2018-06-14T23:25:42.759Z,15.90
2018-06-14T23:28:13.607Z,15.90
2018-06-14T23:30:44.303Z,15.90
2018-06-14T23:33:14.963Z,15.90
2018-06-14T23:35:45.661Z,15.90
2018-06-14T23:38:16.343Z,15.90
2018-06-14T23:40:47.024Z,15.80
2018-06-14T23:43:17.682Z,15.90
2018-06-14T23:45:48.375Z,15.90
2018-06-14T23:48:19.068Z,15.90
2018-06-14T23:50:49.764Z,15.90
2018-06-14T23:53:20.407Z,15.80
2018-06-14T23:55:51.091Z,15.90
2018-06-14T23:58:21.803Z,15.90
